Airfield :







YOU CAN JOIN US ON...

 
LOGIN :

Register | Disclaimer

   EN    FR    IT 

 









Legend :    VFR   Marginal VFR   IFR   Intensive IFR   Very Intensive IFR
Visi :
Ceiling :
>= 8 km
>= 3000ft
5 to 8 km
1000 to 3000 ft
1500m to 5 km
500 to 1000 ft
800 to 1500m
200 to 500 ft
< 800m
< 200 ft
Symbols :   Thunderstorms  Fog  Heavy snow  Heavy precipitations  Wind > 20 kt






- Airport Elevation : 20 ft
- IATA code : BOS


KBOS - General Edward Lawrence Logan International

CURRENT METAR :
  • 110154Z 30013G20KT 10SM FEW014 BKN031 OVC047 09/03 A2994 RMK AO2 RAE03B20E41 SLP136 P0000 T00940033

EXPIRED METARs :
  • 110054Z 30015G21KT 10SM -RA FEW014 SCT023 OVC031 11/04 A2991 RMK AO2 PK WND 29032/0024 WSHFT 0006 RAB14E33B52 SLP128 PCPN VRY LGT P0000 T01060044
  • 110026Z 29021G32KT 8SM -RA SCT014 BKN023 OVC095 11/06 A2989 RMK AO2 PK WND 29032/0024 WSHFT 0006 RAB14 P0000 T01110056
  • 110013Z 28020G25KT 10SM SCT015 BKN021 OVC095 13/10 A2987 RMK AO2 PRESRR T01330100
  • 102354Z 24010KT 10SM FEW017 FEW024 OVC100 14/10 A2983 RMK AO2 RAE26 SLP101 P0001 60008 T01390100 10167 20133 53035
  • 102337Z 23010KT 10SM FEW017 SCT024 OVC100 13/10 A2982 RMK AO2 RAE26 P0001 T01330100
  • 102330Z 23010KT 10SM FEW014 BKN021 OVC100 14/11 A2981 RMK AO2 RAE26 P0001 T01390106

TAF KBOS
Valid from the 11 at 00:00 until the 12 at 06:00 UTC


102320Z 1100/1206 22014KT P6SM -RA FEW060 OVC100
FM110200 30010G19KT 6SM -RA OVC040
FM110600 31009KT 5SM -RASN OVC020
FM111000 31010KT 2SM -SN BR OVC008
FM111400 28008KT P6SM VCSH BKN035
FM120200 26010G18KT P6SM FEW200



MET'MAP, your aeronautical weather chart ! - Copyright ORBIFLY December 2007 - Disclaimer

ORBIFLY MET'MAP TEAM :

Programming & Development : Alexandra Zaïnal
Concept & original design : Baudouin d'Aumeries
Assistance for programming : Marc-Olivier Méhu
Technical & hardware support : Manuel Goepfert

Contact : metmap@orbifly.com




SOURCES & CREDITS :

   NOAA